GMMN Airport Information

Runway Information
Runway 17L Length 12205 ft width 148 ft
Elevation 633 ft Threshold 0 ft Heading 164
Runway 35R Length 12205 ft Width 148 ft
Elevation 656 ft Threshold 0 ft Heading 344
Runway 17R Length 12205 ft width 148 ft
Elevation 636 ft Threshold 0 ft Heading 164
Runway 35L Length 12205 ft Width 148 ft
Elevation 656 ft Threshold 0 ft Heading 344
Airport Frequencies
Type APP Name APP Frequency 121.3 MHZ
Type ATIS Name ATIS Frequency 126.4 MHZ
Type TWR Name TWR Frequency 118.5 MHZ
Airport Navaids
Type VOR-DME Name Casablanca Frequency 114000 KHZ
Airport Weather Information & NOTAM
ADDS - METARS form results

(1108 UTC 18 January 2022)
Data provider http://aviationweather.gov/metar/data/
 
METAR text: GMMN 181100Z 22006KT CAVOK 14/07 Q1028 NOSIG
Conditions at: GMMN (NOUASSEUR/CASABL, MA) observed 1100 UTC 18 January 2022
Temperature: 14.0°C (57°F)
Dewpoint: 7.0°C (45°F) [RH = 63%]
Pressure (altimeter): 30.35 inches Hg (1028.0 mb)
Winds: from the SW (220 degrees) at 7 MPH (6 knots; 3.1 m/s)
Visibility: 6 or more miles (10+ km)
Ceiling: ceiling and visibility are OK
Clouds: unknown
Weather: no significant weather observed at this time

METAR text: GMMN 181030Z 29003KT CAVOK 12/08 Q1028 NOSIG
Conditions at: GMMN (NOUASSEUR/CASABL, MA) observed 1030 UTC 18 January 2022
Temperature: 12.0°C (54°F)
Dewpoint: 8.0°C (46°F) [RH = 76%]
Pressure (altimeter): 30.35 inches Hg (1028.0 mb)
Winds: from the WNW (290 degrees) at 3 MPH (3 knots; 1.5 m/s)
Visibility: 6 or more miles (10+ km)
Ceiling: ceiling and visibility are OK
Clouds: unknown
Weather: no significant weather observed at this time

Forecast for: GMMN (NOUASSEUR/CASABL, MA)
Text: TAF GMMN 180500Z 1806/1912 16004KT CAVOK
Forecast period: 0600 to 1100 UTC 18 January 2022
Forecast type: FROM: standard forecast or significant change
Winds: from the SSE (160 degrees) at 5 MPH (4 knots; 2.1 m/s)
Visibility: 6 or more miles (10+ km)
Ceiling: unknown
Clouds: missing
Weather: NSW  (no significant weather)
Text: BECMG 1811/1814 36010KT
Forecast period: 1100 to 1900 UTC 18 January 2022
Forecast type: BECOMING: Conditions expected to become as follows by 1400 UTC 18 January 2022
Winds: from the N (360 degrees) at 12 MPH (10 knots; 5.1 m/s)
Visibility: 6 or more miles (10+ km)
Ceiling: unknown
Clouds: missing
Weather: NSW  (no significant weather)
Text: BECMG 1819/1821 08004KT
Forecast period: 1900 UTC 18 January 2022 to 1200 UTC 19 January 2022
Forecast type: BECOMING: Conditions expected to become as follows by 2100 UTC 18 January 2022
Winds: from the E (80 degrees) at 5 MPH (4 knots; 2.1 m/s)
Visibility: 6 or more miles (10+ km)
Ceiling: unknown
Clouds: missing
Weather: NSW  (no significant weather)